Time;durP1;ratioP1;P1;durP2;ratioP2;P2;SDS_P1;SDS_P2;PMS_P1;PMS_P2;Temp;Humidity;BMP_temperature;BMP_pressure;BME280_temperature;BME280_humidity;BME280_pressure;Samples;Min_cycle;Max_cycle;Signal;HPM_P1;HPM_P2
2022/04/17 00:01:58;;;;;;;4.13;1.80;;;;;;;19.42;52.63;101474.59;5090820;28;20261;-60
2022/04/17 00:04:23;;;;;;;2.63;1.70;;;;;;;19.42;52.31;101466.00;5094092;28;20404;-60
2022/04/17 00:06:48;;;;;;;3.87;2.07;;;;;;;19.42;52.56;101470.91;5093852;28;20309;-60
2022/04/17 00:09:14;;;;;;;2.33;1.47;;;;;;;19.40;52.48;101465.53;5093752;28;20195;-60
2022/04/17 00:11:41;;;;;;;3.80;1.30;;;;;;;19.39;52.54;101461.03;5076050;28;20242;-60
2022/04/17 00:14:07;;;;;;;2.60;1.40;;;;;;;19.39;52.71;101461.03;5091663;28;20183;-60
2022/04/17 00:16:32;;;;;;;2.80;1.67;;;;;;;19.40;52.38;101456.94;5093734;28;20419;-60
2022/04/17 00:18:58;;;;;;;3.60;1.50;;;;;;;19.39;52.74;101458.16;5093650;28;20167;-61
2022/04/17 00:21:23;;;;;;;2.37;1.60;;;;;;;19.39;52.67;101455.28;5093851;28;20185;-61
2022/04/17 00:23:49;;;;;;;2.50;1.57;;;;;;;19.38;52.54;101442.16;5093583;28;20177;-61
2022/04/17 00:26:14;;;;;;;3.03;1.50;;;;;;;19.38;52.65;101447.06;5093898;28;20163;-61
2022/04/17 00:28:40;;;;;;;2.70;1.87;;;;;;;19.38;52.68;101447.91;5093526;28;20213;-61
2022/04/17 00:31:05;;;;;;;3.10;1.60;;;;;;;19.37;52.48;101440.47;5093682;28;20182;-61
2022/04/17 00:33:31;;;;;;;3.37;1.60;;;;;;;19.37;52.56;101443.34;5093594;28;20283;-61
2022/04/17 00:35:57;;;;;;;2.83;1.23;;;;;;;19.36;52.65;101447.41;5093429;28;20174;-61
2022/04/17 00:38:23;;;;;;;2.73;1.50;;;;;;;19.36;52.75;101450.25;5093564;28;20158;-61
2022/04/17 00:40:48;;;;;;;3.73;1.57;;;;;;;19.37;52.71;101454.78;5093202;28;20421;-60
2022/04/17 00:43:29;;;;;;;2.30;1.43;;;;;;;19.37;52.64;101453.97;5075069;28;20205;-60
2022/04/17 00:45:54;;;;;;;2.10;1.40;;;;;;;19.38;52.78;101458.50;5093387;28;20228;-60
2022/04/17 00:48:20;;;;;;;2.40;1.47;;;;;;;19.36;52.82;101455.19;5092927;28;20833;-60
2022/04/17 00:50:46;;;;;;;2.10;1.30;;;;;;;19.36;52.89;101455.19;5093311;28;20178;-60
2022/04/17 00:53:12;;;;;;;2.80;1.60;;;;;;;19.36;52.85;101455.19;5092624;28;20190;-61
2022/04/17 00:55:37;;;;;;;2.50;1.77;;;;;;;19.35;52.78;101451.47;5091775;28;20170;-62
2022/04/17 00:58:03;;;;;;;3.07;1.70;;;;;;;19.35;52.72;101459.22;5070846;28;20443;-62
2022/04/17 01:00:28;;;;;;;2.87;1.77;;;;;;;19.34;53.19;101461.25;5090594;28;20649;-62
2022/04/17 01:02:54;;;;;;;2.40;1.50;;;;;;;19.34;52.58;101452.66;5073092;28;20421;-61
2022/04/17 01:05:20;;;;;;;4.70;1.47;;;;;;;19.35;52.95;101453.47;5092162;28;20177;-61
2022/04/17 01:07:46;;;;;;;1.93;1.10;;;;;;;19.33;52.80;101441.56;5093026;28;20578;-61
2022/04/17 01:10:11;;;;;;;2.90;1.50;;;;;;;19.34;52.75;101449.81;5074628;28;20471;-61
2022/04/17 01:12:37;;;;;;;2.50;1.70;;;;;;;19.34;52.74;101440.38;5093275;28;20167;-61
2022/04/17 01:15:03;;;;;;;3.33;1.80;;;;;;;19.32;52.83;101426.41;5092685;28;20170;-61
2022/04/17 01:17:28;;;;;;;1.90;1.27;;;;;;;19.32;53.11;101437.03;5081782;28;20171;-61
2022/04/17 01:19:54;;;;;;;2.47;1.57;;;;;;;19.33;52.78;101435.84;5065136;28;20426;-62
2022/04/17 01:22:19;;;;;;;2.53;1.60;;;;;;;19.33;52.99;101435.84;5034731;28;20179;-61
2022/04/17 01:27:29;;;;;;;2.73;1.70;;;;;;;19.31;52.78;101421.88;5052632;28;20238;-61
2022/04/17 01:29:54;;;;;;;2.37;1.50;;;;;;;19.30;53.08;101420.22;5034305;28;20936;-61
2022/04/17 01:32:20;;;;;;;2.23;1.30;;;;;;;19.31;52.95;101418.19;5052532;28;20253;-61
2022/04/17 01:34:45;;;;;;;3.00;1.50;;;;;;;19.30;52.93;101423.06;5052254;28;20211;-61
2022/04/17 01:37:13;;;;;;;5.13;1.60;;;;;;;19.30;52.92;101407.91;5052275;28;20658;-61
2022/04/17 01:39:39;;;;;;;2.90;1.63;;;;;;;19.28;53.18;101411.16;5051869;28;20592;-61
2022/04/17 01:42:04;;;;;;;1.80;1.30;;;;;;;19.29;52.90;101415.69;5040199;28;20460;-61
2022/04/17 01:44:30;;;;;;;2.60;1.67;;;;;;;19.28;53.08;101404.59;5046259;28;20175;-60
2022/04/17 01:46:56;;;;;;;2.27;1.53;;;;;;;19.28;52.95;101402.56;5052082;28;20191;-60
2022/04/17 01:49:21;;;;;;;2.53;1.50;;;;;;;19.28;52.87;101399.72;5051672;28;20638;-61
2022/04/17 01:51:47;;;;;;;3.33;1.80;;;;;;;19.28;53.08;101411.16;5039775;28;20259;-61
2022/04/17 01:54:17;;;;;;;3.10;1.33;;;;;;;19.29;53.02;101409.13;5071629;28;20650;-61
2022/04/17 01:56:43;;;;;;;4.80;1.67;;;;;;;19.28;53.17;101401.72;5072124;28;20428;-61
2022/04/17 01:59:09;;;;;;;2.20;1.40;;;;;;;19.27;53.12;101394.34;5053407;28;20414;-61
2022/04/17 02:01:37;;;;;;;1.97;1.20;;;;;;;19.27;53.18;101394.34;5053883;28;20173;-61
2022/04/17 02:04:03;;;;;;;2.30;1.37;;;;;;;19.27;52.99;101391.47;5070874;28;20194;-61
2022/04/17 02:06:28;;;;;;;2.23;1.53;;;;;;;19.25;53.18;101391.81;5074668;28;20496;-61
2022/04/17 02:08:54;;;;;;;2.93;1.40;;;;;;;19.25;53.12;101380.38;5088340;28;20281;-61
2022/04/17 02:11:20;;;;;;;2.47;1.53;;;;;;;19.25;53.15;101374.66;5091958;28;20230;-61
2022/04/17 02:13:46;;;;;;;3.63;1.70;;;;;;;19.24;53.60;101378.72;5091564;28;20185;-61
2022/04/17 02:16:13;;;;;;;2.20;1.33;;;;;;;19.25;53.12;101373.78;5090374;28;20413;-61
2022/04/17 02:18:38;;;;;;;3.93;1.37;;;;;;;19.24;53.27;101375.00;5091355;28;20428;-61
2022/04/17 02:21:04;;;;;;;3.03;1.77;;;;;;;19.24;53.19;101378.72;5091160;28;20482;-61
2022/04/17 02:23:29;;;;;;;1.80;1.07;;;;;;;19.24;53.21;101367.25;5071890;28;20175;-62
2022/04/17 02:25:54;;;;;;;2.43;1.57;;;;;;;19.23;53.07;101377.03;5053606;28;20167;-61
2022/04/17 02:28:20;;;;;;;3.67;1.50;;;;;;;19.24;53.28;101372.97;5071349;28;20182;-61
2022/04/17 02:30:45;;;;;;;2.73;1.50;;;;;;;19.24;53.18;101369.28;5071327;28;20178;-61
2022/04/17 02:33:11;;;;;;;2.50;1.40;;;;;;;19.23;53.37;101370.47;5071630;28;20960;-61
2022/04/17 02:35:37;;;;;;;2.73;1.47;;;;;;;19.22;53.25;101363.91;5071413;28;20533;-61
2022/04/17 02:38:02;;;;;;;2.23;1.20;;;;;;;19.23;53.22;101370.47;5075668;28;20178;-61
2022/04/17 02:40:28;;;;;;;2.20;1.20;;;;;;;19.21;53.30;101362.22;5075353;28;20565;-61
2022/04/17 02:42:53;;;;;;;2.00;1.20;;;;;;;19.20;53.40;101363.41;5095188;28;20224;-61
2022/04/17 02:45:19;;;;;;;2.73;1.30;;;;;;;19.20;53.42;101360.53;5095630;28;20202;-61
2022/04/17 02:47:51;;;;;;;2.20;1.30;;;;;;;19.20;53.42;101360.53;5095852;28;20352;-61
2022/04/17 02:50:17;;;;;;;3.17;1.37;;;;;;;19.20;53.47;101357.69;5095154;28;20456;-61
2022/04/17 02:52:42;;;;;;;2.57;1.30;;;;;;;19.20;53.35;101366.28;5082180;28;20429;-61
2022/04/17 02:55:09;;;;;;;3.27;1.57;;;;;;;19.20;53.41;101365.41;5084094;28;20772;-61
2022/04/17 02:57:34;;;;;;;3.00;1.70;;;;;;;19.19;53.45;101364.59;5095391;28;20178;-61
2022/04/17 03:00:00;;;;;;;2.10;1.47;;;;;;;19.19;53.23;101360.91;5095163;28;20408;-61
2022/04/17 03:07:54;;;;;;;2.67;1.53;;;;;;;19.17;53.51;101375.56;5074040;28;21005;-61
2022/04/17 03:10:20;;;;;;;2.30;1.40;;;;;;;19.17;53.52;101366.97;5075019;28;20461;-61
2022/04/17 03:12:45;;;;;;;2.20;1.30;;;;;;;19.16;53.33;101362.44;5095350;28;20540;-61
2022/04/17 03:15:11;;;;;;;2.30;1.40;;;;;;;19.15;53.59;101352.19;5095304;28;20183;-61
2022/04/17 03:17:37;;;;;;;2.00;1.30;;;;;;;19.16;53.37;101351.00;5094719;28;20174;-61
2022/04/17 03:20:03;;;;;;;2.27;1.30;;;;;;;19.15;53.50;101346.47;5080392;28;20274;-61
2022/04/17 03:22:29;;;;;;;2.10;1.20;;;;;;;19.16;53.45;101342.41;5086166;28;20274;-61
2022/04/17 03:24:54;;;;;;;2.30;1.30;;;;;;;19.16;53.55;101342.41;5094800;28;20412;-61
2022/04/17 03:27:20;;;;;;;2.43;1.50;;;;;;;19.15;53.54;101349.34;5094995;28;20170;-61
2022/04/17 03:29:45;;;;;;;2.97;1.60;;;;;;;19.14;53.72;101350.53;5094738;28;20202;-61
2022/04/17 03:32:11;;;;;;;2.27;1.47;;;;;;;19.14;53.30;101350.53;5094792;28;20536;-61
2022/04/17 03:34:37;;;;;;;2.73;1.70;;;;;;;19.13;53.48;101357.47;5094869;28;20220;-61
2022/04/17 03:37:03;;;;;;;1.90;1.30;;;;;;;19.13;53.53;101343.16;5094552;28;20174;-61
2022/04/17 03:39:29;;;;;;;1.97;1.13;;;;;;;19.13;53.49;101343.16;5094647;28;20166;-61
2022/04/17 03:41:54;;;;;;;2.43;1.83;;;;;;;19.12;53.68;101335.72;5094586;28;20478;-61
2022/04/17 03:44:20;;;;;;;2.13;1.20;;;;;;;19.12;53.54;101335.72;5094586;28;20193;-61
2022/04/17 03:46:47;;;;;;;1.80;1.20;;;;;;;19.11;53.60;101339.78;5094465;28;20190;-61
2022/04/17 03:49:13;;;;;;;1.90;1.10;;;;;;;19.11;53.74;101341.84;5093153;28;20210;-61
2022/04/17 03:51:38;;;;;;;1.90;1.30;;;;;;;19.11;53.72;101339.78;5094287;28;20432;-60
2022/04/17 03:54:04;;;;;;;2.77;1.40;;;;;;;19.11;53.64;101327.53;5094204;28;20231;-60
2022/04/17 03:56:29;;;;;;;2.47;1.57;;;;;;;19.10;53.75;101329.53;5094357;28;20174;-60
2022/04/17 03:58:55;;;;;;;3.30;1.60;;;;;;;19.10;53.84;101329.53;5093006;28;20622;-61
2022/04/17 04:01:21;;;;;;;2.37;1.30;;;;;;;19.10;53.66;101322.97;5075950;28;20186;-61
2022/04/17 04:03:47;;;;;;;2.13;1.17;;;;;;;19.10;53.67;101329.53;5075082;28;20194;-61
2022/04/17 04:06:13;;;;;;;2.63;1.60;;;;;;;19.10;54.13;101328.69;5072123;28;20615;-61
2022/04/17 04:08:38;;;;;;;2.60;1.40;;;;;;;19.09;53.79;101330.75;5072652;28;20453;-61
2022/04/17 04:11:05;;;;;;;2.57;1.60;;;;;;;19.09;53.67;101329.91;5054292;28;20182;-61
2022/04/17 04:13:32;;;;;;;2.37;1.50;;;;;;;19.07;53.54;101324.53;5079608;28;20206;-61
2022/04/17 04:15:58;;;;;;;2.50;1.40;;;;;;;19.07;54.02;101324.53;5093657;28;20533;-61
2022/04/17 04:18:23;;;;;;;2.37;1.30;;;;;;;19.07;53.55;101324.53;5093953;28;20429;-61
2022/04/17 04:20:48;;;;;;;2.27;1.43;;;;;;;19.08;53.74;101325.38;5093627;28;20174;-61
2022/04/17 04:23:14;;;;;;;2.60;1.27;;;;;;;19.07;53.69;101315.94;5076157;28;20183;-61
2022/04/17 04:25:39;;;;;;;2.10;1.30;;;;;;;19.06;53.64;101320.00;5073327;28;20179;-61
2022/04/17 04:30:49;;;;;;;2.07;1.27;;;;;;;19.06;53.68;101317.13;5073420;28;20217;-61
2022/04/17 04:33:14;;;;;;;1.93;1.20;;;;;;;19.06;53.88;101319.19;5073425;28;20453;-61
2022/04/17 04:35:40;;;;;;;1.77;1.07;;;;;;;19.04;53.89;101319.53;5073197;28;20175;-61
2022/04/17 04:38:06;;;;;;;2.67;1.40;;;;;;;19.04;53.87;101322.41;5073737;28;20166;-61
2022/04/17 04:40:32;;;;;;;2.53;1.70;;;;;;;19.05;53.78;101314.63;5073196;28;20167;-61
2022/04/17 04:43:01;;;;;;;2.00;1.10;;;;;;;19.04;53.72;101316.69;5073297;28;20421;-61
2022/04/17 04:48:10;;;;;;;1.70;1.10;;;;;;;19.04;53.73;101310.97;5073252;28;20393;-61
2022/04/17 04:50:36;;;;;;;2.47;1.10;;;;;;;19.03;53.74;101314.16;5089433;28;20456;-61
2022/04/17 04:53:01;;;;;;;2.40;1.10;;;;;;;19.03;53.83;101314.16;5076904;28;20182;-61
2022/04/17 04:55:27;;;;;;;2.10;1.13;;;;;;;19.03;53.77;101311.31;5073292;28;20182;-61
2022/04/17 04:57:53;;;;;;;1.97;1.03;;;;;;;19.03;53.77;101314.16;5073090;28;20174;-61
2022/04/17 05:00:18;;;;;;;2.10;1.10;;;;;;;19.02;53.71;101313.31;5081560;28;20178;-61
2022/04/17 05:02:44;;;;;;;1.90;1.10;;;;;;;19.02;53.78;101319.03;5087787;28;20258;-61
2022/04/17 05:05:10;;;;;;;1.90;1.10;;;;;;;19.02;53.73;101324.78;5072868;28;20175;-60
2022/04/17 05:07:35;;;;;;;2.20;1.40;;;;;;;19.01;53.89;101323.09;5057169;28;20221;-61
2022/04/17 05:10:01;;;;;;;2.00;1.20;;;;;;;19.01;53.65;101310.84;5072621;28;20557;-61
2022/04/17 05:12:29;;;;;;;1.90;0.90;;;;;;;19.00;53.72;101307.13;5072433;28;20163;-61
2022/04/17 05:14:55;;;;;;;2.40;1.50;;;;;;;19.00;53.94;101307.13;5089858;28;20178;-61
2022/04/17 05:17:20;;;;;;;2.57;1.50;;;;;;;19.01;54.00;101307.97;5092417;28;20481;-61
2022/04/17 05:19:46;;;;;;;2.40;1.30;;;;;;;19.01;53.91;101319.44;5092814;28;20640;-62
2022/04/17 05:22:16;;;;;;;2.33;1.40;;;;;;;19.00;54.11;101312.88;5083522;28;20171;-61
2022/04/17 05:24:43;;;;;;;1.70;1.10;;;;;;;19.00;54.06;101321.44;5072686;28;20182;-61
2022/04/17 05:27:08;;;;;;;2.00;1.10;;;;;;;19.01;53.94;101322.28;5072444;28;20437;-61
2022/04/17 05:29:33;;;;;;;2.43;1.50;;;;;;;19.00;54.15;101327.16;5071311;28;20946;-61
2022/04/17 05:32:00;;;;;;;2.33;1.17;;;;;;;19.00;53.91;101324.31;5070840;28;20175;-61
2022/04/17 05:34:26;;;;;;;2.13;1.30;;;;;;;19.00;53.87;101334.91;5072121;28;20650;-61
2022/04/17 05:36:51;;;;;;;2.37;1.40;;;;;;;19.00;53.71;101340.63;5072363;28;20425;-62
2022/04/17 05:39:20;;;;;;;1.97;1.10;;;;;;;19.00;53.80;101337.78;5072110;28;20174;-61
2022/04/17 05:41:45;;;;;;;1.80;0.87;;;;;;;18.99;53.84;101328.38;5071997;28;20224;-61
2022/04/17 05:44:11;;;;;;;1.90;1.00;;;;;;;18.99;53.90;101322.66;5071894;28;20390;-61
2022/04/17 05:46:36;;;;;;;2.27;1.20;;;;;;;19.00;53.87;101314.88;5072033;28;20187;-61
2022/04/17 05:49:05;;;;;;;1.70;1.00;;;;;;;18.99;53.80;101319.78;5071764;28;20244;-61
2022/04/17 05:51:36;;;;;;;2.13;1.10;;;;;;;18.98;53.81;101326.72;5054133;28;20662;-61
2022/04/17 05:54:05;;;;;;;2.03;1.03;;;;;;;19.00;54.02;101329.19;5072048;28;20402;-61
2022/04/17 05:56:31;;;;;;;2.20;1.23;;;;;;;18.99;53.99;101336.97;5072758;28;20417;-61
2022/04/17 05:58:56;;;;;;;3.10;1.17;;;;;;;18.99;54.02;101339.81;5091436;28;20942;-61
2022/04/17 06:01:21;;;;;;;1.93;1.13;;;;;;;18.99;53.65;101339.81;5088706;28;20203;-61
2022/04/17 06:03:47;;;;;;;1.70;0.90;;;;;;;18.99;53.95;101347.56;5091996;28;20174;-61
2022/04/17 06:06:12;;;;;;;2.47;1.40;;;;;;;18.97;53.92;101342.19;5091723;28;20271;-61
2022/04/17 06:08:38;;;;;;;2.80;1.30;;;;;;;18.97;54.03;101345.03;5091915;28;20246;-61
2022/04/17 06:11:03;;;;;;;2.20;1.20;;;;;;;18.97;53.99;101345.03;5091467;28;20213;-61
2022/04/17 06:13:29;;;;;;;2.23;1.20;;;;;;;18.98;53.76;101337.31;5091742;28;20517;-61
2022/04/17 06:15:54;;;;;;;2.27;1.10;;;;;;;18.97;53.86;101345.03;5091490;28;20190;-61
2022/04/17 06:18:20;;;;;;;2.60;1.50;;;;;;;18.97;53.77;101345.03;5073471;28;20178;-61
2022/04/17 06:20:45;;;;;;;2.37;1.20;;;;;;;18.97;54.00;101345.03;5091766;28;20676;-61
2022/04/17 06:23:11;;;;;;;2.73;1.30;;;;;;;18.97;53.92;101344.22;5074403;28;20171;-61
2022/04/17 06:25:36;;;;;;;2.47;1.10;;;;;;;18.97;53.96;101353.63;5071487;28;20151;-61
2022/04/17 06:28:01;;;;;;;2.03;1.10;;;;;;;18.96;53.69;101349.09;5071242;28;20197;-62
2022/04/17 06:30:27;;;;;;;3.03;1.50;;;;;;;18.97;53.76;101347.09;5071338;28;20553;-61
2022/04/17 06:32:52;;;;;;;1.80;1.10;;;;;;;18.96;53.84;101345.44;5071787;28;20178;-61
2022/04/17 06:35:18;;;;;;;2.20;1.33;;;;;;;18.96;53.99;101342.56;5071378;28;20186;-61
2022/04/17 06:37:53;;;;;;;2.03;1.27;;;;;;;18.95;53.76;101347.44;5071540;28;20214;-61
2022/04/17 06:40:21;;;;;;;1.67;1.10;;;;;;;18.95;53.95;101347.44;5071318;28;20171;-61
2022/04/17 06:42:47;;;;;;;1.90;1.03;;;;;;;18.94;53.93;101345.78;5078436;28;20471;-61
2022/04/17 06:45:13;;;;;;;1.90;1.07;;;;;;;18.94;53.91;101342.91;5073685;28;20574;-60
2022/04/17 06:47:38;;;;;;;2.20;1.30;;;;;;;18.95;53.86;101340.88;5073264;28;20515;-60
2022/04/17 06:50:05;;;;;;;2.50;1.43;;;;;;;18.93;54.02;101331.81;5091015;28;20720;-60
2022/04/17 06:52:30;;;;;;;1.80;1.03;;;;;;;18.94;53.58;101333.50;5083131;28;20182;-60
2022/04/17 06:54:55;;;;;;;2.23;1.37;;;;;;;18.94;54.17;101328.63;5091216;28;20415;-60
2022/04/17 06:57:27;;;;;;;1.90;1.17;;;;;;;18.93;53.74;101326.94;5091460;28;20181;-60
2022/04/17 06:59:53;;;;;;;1.80;1.10;;;;;;;18.93;53.50;101326.09;5091550;28;20249;-60
2022/04/17 07:02:18;;;;;;;2.07;1.20;;;;;;;18.93;53.93;101326.94;5091277;28;20895;-60
2022/04/17 07:04:44;;;;;;;2.20;1.40;;;;;;;18.93;53.92;101329.81;5091424;28;20182;-60
2022/04/17 07:07:09;;;;;;;2.17;1.40;;;;;;;18.93;53.75;101314.66;5087662;28;20221;-60
2022/04/17 07:09:35;;;;;;;2.03;0.90;;;;;;;18.94;53.81;101320.03;5087800;28;20282;-60
2022/04/17 07:12:00;;;;;;;1.67;0.90;;;;;;;18.92;53.84;101315.84;5091380;28;20174;-60
2022/04/17 07:14:26;;;;;;;2.03;1.23;;;;;;;18.92;53.80;101302.38;5087677;28;20178;-60
2022/04/17 07:16:51;;;;;;;2.37;1.30;;;;;;;18.91;53.89;101303.56;5091365;28;20304;-60
2022/04/17 07:19:16;;;;;;;2.10;1.10;;;;;;;18.92;53.94;101302.38;5090790;28;20163;-60
2022/04/17 07:21:42;;;;;;;2.27;1.43;;;;;;;18.92;54.01;101313.00;5086105;28;20178;-60
2022/04/17 07:24:08;;;;;;;1.80;1.10;;;;;;;18.92;53.88;101302.38;5074583;28;20229;-60
2022/04/17 07:26:33;;;;;;;1.60;1.00;;;;;;;18.92;53.80;101302.38;5074588;28;20179;-60
2022/04/17 07:28:59;;;;;;;1.90;1.20;;;;;;;18.91;54.08;101297.84;5073546;28;20195;-60
2022/04/17 07:31:25;;;;;;;2.07;1.10;;;;;;;18.91;53.92;101288.44;5074134;28;20191;-60
2022/04/17 07:33:50;;;;;;;2.00;1.10;;;;;;;18.90;54.00;101286.75;5074038;28;20193;-60
2022/04/17 07:36:15;;;;;;;2.40;1.20;;;;;;;18.90;53.87;101287.59;5074579;28;20189;-61
2022/04/17 07:38:41;;;;;;;1.80;1.10;;;;;;;18.90;54.03;101279.00;5074533;28;20219;-60
2022/04/17 07:41:06;;;;;;;2.13;1.33;;;;;;;18.89;53.95;101282.22;5074659;28;20197;-60
2022/04/17 07:43:32;;;;;;;2.43;1.30;;;;;;;18.88;53.86;101283.44;5074288;28;20174;-61
2022/04/17 07:45:58;;;;;;;1.90;1.20;;;;;;;18.89;54.27;101279.38;5074181;28;20199;-61
2022/04/17 07:48:24;;;;;;;2.67;1.40;;;;;;;18.90;53.98;101283.88;5056344;28;20214;-61
2022/04/17 07:50:52;;;;;;;1.70;1.10;;;;;;;18.90;53.81;101293.31;5074100;28;20256;-61
2022/04/17 07:53:18;;;;;;;2.20;1.13;;;;;;;18.90;53.84;101287.59;5072946;28;20428;-61
2022/04/17 07:55:43;;;;;;;2.10;1.30;;;;;;;18.89;53.92;101287.94;5090115;28;20425;-61
2022/04/17 07:58:15;;;;;;;2.00;1.20;;;;;;;18.89;54.03;101285.94;5094377;28;20178;-61
2022/04/17 08:00:51;;;;;;;2.43;1.20;;;;;;;18.89;53.80;101279.38;5094114;28;20151;-61
2022/04/17 08:03:35;;;;;;;1.77;0.90;;;;;;;18.88;53.99;101277.72;5094230;28;20946;-61
2022/04/17 08:06:07;;;;;;;1.70;1.00;;;;;;;18.87;53.96;101276.84;5090471;28;20440;-63
2022/04/17 08:08:39;;;;;;;1.97;1.00;;;;;;;18.87;53.81;101271.13;5094102;28;20407;-61
2022/04/17 08:11:05;;;;;;;1.90;1.30;;;;;;;18.87;54.01;101271.13;5093697;28;20789;-61
2022/04/17 08:13:30;;;;;;;2.80;1.20;;;;;;;18.86;53.86;101271.53;5093689;28;20512;-61
2022/04/17 08:15:56;;;;;;;2.10;1.30;;;;;;;18.87;54.02;101270.31;5093959;28;20189;-61
2022/04/17 08:18:21;;;;;;;2.10;1.10;;;;;;;18.87;54.00;101276.84;5092628;28;20186;-61
2022/04/17 08:20:47;;;;;;;1.80;1.10;;;;;;;18.87;53.78;101270.31;5093061;28;20532;-61
2022/04/17 08:23:12;;;;;;;1.97;1.20;;;;;;;18.85;53.82;101262.09;5076255;28;20175;-61
2022/04/17 08:25:38;;;;;;;1.90;1.13;;;;;;;18.86;54.20;101263.75;5073797;28;20516;-61
2022/04/17 08:28:04;;;;;;;1.90;1.17;;;;;;;18.85;53.91;101267.81;5073717;28;20174;-61
2022/04/17 08:30:30;;;;;;;2.07;1.13;;;;;;;18.86;54.18;101263.75;5073296;28;20510;-61
2022/04/17 08:32:56;;;;;;;1.67;1.00;;;;;;;18.86;54.15;101268.66;5073493;28;20175;-61
2022/04/17 08:35:22;;;;;;;2.00;1.10;;;;;;;18.85;53.99;101270.69;5072700;28;20417;-61
2022/04/17 08:37:48;;;;;;;1.77;1.00;;;;;;;18.85;53.85;101273.53;5073340;28;20490;-61
2022/04/17 08:40:13;;;;;;;2.20;1.10;;;;;;;18.84;54.16;101266.16;5073159;28;20175;-61
2022/04/17 08:42:39;;;;;;;2.67;1.20;;;;;;;18.84;53.96;101263.28;5072306;28;20272;-61
2022/04/17 08:45:05;;;;;;;2.00;1.20;;;;;;;18.85;53.94;101255.53;5071800;28;20178;-61
2022/04/17 08:47:31;;;;;;;2.20;1.20;;;;;;;18.84;54.12;101263.28;5093776;28;20159;-61
2022/04/17 08:49:56;;;;;;;1.50;0.80;;;;;;;18.84;53.99;101262.44;5074726;28;20455;-61
2022/04/17 08:52:22;;;;;;;2.10;1.00;;;;;;;18.84;53.96;101259.59;5082783;28;20175;-61
2022/04/17 08:54:48;;;;;;;2.03;1.07;;;;;;;18.83;53.96;101249.34;5072761;28;20288;-61
2022/04/17 08:57:16;;;;;;;2.57;1.30;;;;;;;18.83;53.89;101244.47;5072886;28;20174;-61
2022/04/17 08:59:42;;;;;;;1.80;1.20;;;;;;;18.83;54.10;101232.16;5085142;28;20424;-61
2022/04/17 09:02:10;;;;;;;1.77;1.00;;;;;;;18.83;53.82;101233.03;5091793;28;20417;-62
2022/04/17 09:04:43;;;;;;;2.20;1.30;;;;;;;18.84;53.69;101226.09;5075382;28;20206;-61
2022/04/17 09:07:10;;;;;;;1.70;1.00;;;;;;;18.83;54.02;101223.59;5092424;28;20456;-61
2022/04/17 09:09:49;;;;;;;2.73;1.27;;;;;;;18.83;53.79;101224.44;5091136;28;20527;-61
2022/04/17 09:12:25;;;;;;;1.60;1.07;;;;;;;18.83;53.74;101218.72;5089625;28;20412;-61
2022/04/17 09:14:50;;;;;;;2.00;1.20;;;;;;;18.82;53.86;101211.31;5090104;28;20461;-61
2022/04/17 09:17:16;;;;;;;1.67;0.90;;;;;;;18.82;53.85;101199.03;5092752;28;20459;-61
2022/04/17 09:19:42;;;;;;;1.93;1.00;;;;;;;18.82;53.76;101199.84;5092182;28;20245;-61
2022/04/17 09:22:09;;;;;;;1.73;0.90;;;;;;;18.83;53.58;101195.81;5083848;28;20603;-61
2022/04/17 09:24:39;;;;;;;2.23;1.17;;;;;;;18.84;53.94;101196.63;5072426;28;20417;-61
2022/04/17 09:27:05;;;;;;;2.20;1.30;;;;;;;18.82;54.01;101194.13;5072458;28;20428;-61
2022/04/17 09:29:36;;;;;;;2.03;1.10;;;;;;;18.83;53.82;101184.38;5072533;28;20437;-61
2022/04/17 09:32:08;;;;;;;1.93;1.00;;;;;;;18.80;53.98;101173.66;5071209;28;20500;-61
2022/04/17 09:34:52;;;;;;;1.83;1.13;;;;;;;18.83;53.66;101174.94;5070832;28;20496;-61
2022/04/17 09:37:19;;;;;;;2.07;1.10;;;;;;;18.81;53.62;101165.91;5072219;28;20496;-61
2022/04/17 09:39:45;;;;;;;2.13;1.10;;;;;;;18.80;54.14;101164.22;5072174;28;20410;-61
2022/04/17 09:42:10;;;;;;;2.10;0.80;;;;;;;18.80;53.88;101162.22;5072149;28;20424;-61
2022/04/17 09:44:46;;;;;;;1.70;0.90;;;;;;;18.82;53.71;101162.66;5071923;28;20543;-61
2022/04/17 09:47:20;;;;;;;1.60;0.93;;;;;;;18.82;53.88;101156.94;5071000;28;20201;-61
2022/04/17 09:50:08;;;;;;;2.20;1.20;;;;;;;18.81;54.06;101151.59;5071729;28;20445;-61
2022/04/17 09:52:44;;;;;;;1.40;0.80;;;;;;;18.81;54.13;101151.59;5077299;28;20507;-61
2022/04/17 09:55:10;;;;;;;1.70;0.87;;;;;;;18.81;53.70;101151.59;5074196;28;20423;-61
2022/04/17 09:57:36;;;;;;;1.80;0.87;;;;;;;18.82;54.03;101136.09;5089481;28;20415;-61
2022/04/17 10:00:16;;;;;;;2.13;1.40;;;;;;;18.82;53.73;101138.97;5090170;28;20245;-61
2022/04/17 10:02:43;;;;;;;2.67;1.43;;;;;;;18.80;53.82;101136.47;5092172;28;20408;-61
2022/04/17 10:05:11;;;;;;;1.80;1.10;;;;;;;18.79;53.96;101131.09;5091854;28;20420;-61
2022/04/17 10:07:38;;;;;;;1.80;1.00;;;;;;;18.80;54.07;101132.75;5091734;28;20464;-61
2022/04/17 10:10:04;;;;;;;1.90;1.20;;;;;;;18.81;54.07;101125.88;5091456;28;20509;-61
2022/04/17 10:12:30;;;;;;;2.00;1.00;;;;;;;18.81;53.74;101120.94;5057299;28;20416;-61
2022/04/17 10:14:55;;;;;;;1.87;1.07;;;;;;;18.78;54.07;101110.25;5073661;28;20770;-61
2022/04/17 10:17:22;;;;;;;2.53;1.30;;;;;;;18.78;53.70;101115.97;5056042;28;20543;-60
2022/04/17 10:19:49;;;;;;;1.90;1.00;;;;;;;18.79;53.95;101114.78;5090442;28;20551;-60
2022/04/17 10:22:18;;;;;;;1.70;1.00;;;;;;;18.78;54.00;101110.25;5082418;28;20421;-60
2022/04/17 10:24:52;;;;;;;1.70;1.10;;;;;;;18.79;53.85;101105.34;5071153;28;20417;-60
2022/04/17 10:27:22;;;;;;;2.00;1.10;;;;;;;18.79;53.75;101102.50;5054927;28;20389;-60
2022/04/17 10:29:50;;;;;;;1.70;0.90;;;;;;;18.79;53.87;101103.34;5053851;28;20441;-62
2022/04/17 10:32:43;;;;;;;3.00;0.90;;;;;;;18.79;53.84;101100.47;5053695;28;20883;-62
2022/04/17 10:35:20;;;;;;;2.00;1.20;;;;;;;18.81;53.75;101097.25;5074165;28;21195;-62
2022/04/17 10:38:00;;;;;;;2.00;1.00;;;;;;;18.80;53.95;101086.97;5071415;28;20828;-63
2022/04/17 10:40:25;;;;;;;1.40;0.70;;;;;;;18.79;53.88;101097.59;5071402;28;20415;-62
2022/04/17 10:42:55;;;;;;;1.83;1.07;;;;;;;18.80;53.82;101084.13;5071449;28;20912;-62
2022/04/17 10:45:22;;;;;;;2.00;1.10;;;;;;;18.79;53.77;101079.59;5069794;28;20167;-62
2022/04/17 10:48:11;;;;;;;2.37;1.33;;;;;;;18.81;53.84;101086.63;5053299;28;20413;-62
2022/04/17 10:50:44;;;;;;;2.57;1.30;;;;;;;18.80;53.69;101081.25;5059349;28;20465;-62
2022/04/17 10:53:32;;;;;;;1.70;1.00;;;;;;;18.80;53.83;101087.81;5087931;28;20423;-62
2022/04/17 10:56:10;;;;;;;1.53;0.83;;;;;;;18.80;53.87;101089.84;5077336;28;20509;-62
2022/04/17 10:58:57;;;;;;;1.70;0.90;;;;;;;18.79;53.69;101074.72;5076604;28;20527;-62
2022/04/17 11:01:41;;;;;;;2.20;1.10;;;;;;;18.81;53.74;101082.94;5095352;28;20420;-62
2022/04/17 11:04:26;;;;;;;2.20;1.07;;;;;;;18.81;53.62;101078.03;5095227;28;20446;-62
2022/04/17 11:06:53;;;;;;;1.70;1.00;;;;;;;18.80;53.87;101070.66;5086913;28;20495;-62
2022/04/17 11:09:23;;;;;;;1.83;1.00;;;;;;;18.80;53.88;101066.97;5095298;28;20452;-62
2022/04/17 11:11:48;;;;;;;1.90;1.17;;;;;;;18.80;53.70;101070.66;5095196;28;20841;-62
2022/04/17 11:14:22;;;;;;;1.80;1.00;;;;;;;18.82;53.83;101073.16;5089308;28;20421;-62
2022/04/17 11:16:56;;;;;;;1.63;0.93;;;;;;;18.80;53.82;101070.66;5093896;28;20601;-62
2022/04/17 11:19:23;;;;;;;2.30;1.20;;;;;;;18.81;53.92;101065.78;5095115;28;20415;-62
2022/04/17 11:21:53;;;;;;;1.90;1.00;;;;;;;18.81;53.65;101054.34;5075614;28;20420;-62
2022/04/17 11:24:19;;;;;;;2.17;1.37;;;;;;;18.81;53.48;101060.88;5094925;28;20521;-62
2022/04/17 11:26:54;;;;;;;2.60;1.30;;;;;;;18.81;53.75;101055.16;5094958;28;20444;-62
2022/04/17 11:29:43;;;;;;;1.93;0.90;;;;;;;18.81;53.87;101046.56;5094613;28;20487;-62
2022/04/17 11:32:17;;;;;;;1.80;1.00;;;;;;;18.81;53.76;101046.56;5094984;28;20446;-62
2022/04/17 11:34:44;;;;;;;1.60;0.83;;;;;;;18.82;54.02;101048.22;5094586;28;20430;-62
2022/04/17 11:37:09;;;;;;;1.60;0.90;;;;;;;18.83;53.85;101041.34;5094789;28;20755;-62
2022/04/17 11:39:36;;;;;;;1.70;1.07;;;;;;;18.83;53.82;101046.22;5076181;28;20485;-62